sensor_id;sensor_type;location;lat;lon;timestamp;P1;durP1;ratioP1;P2;durP2;ratioP2
27863;SDS011;15980;51.092;13.916;2022-12-22T00:00:46;25.98;;;10.98;;
27863;SDS011;15980;51.092;13.916;2022-12-22T00:06:07;27.05;;;10.45;;
27863;SDS011;15980;51.092;13.916;2022-12-22T00:11:25;31.52;;;11.23;;
27863;SDS011;15980;51.092;13.916;2022-12-22T00:16:48;28.80;;;11.33;;
27863;SDS011;15980;51.092;13.916;2022-12-22T00:22:06;24.98;;;11.23;;
27863;SDS011;15980;51.092;13.916;2022-12-22T00:27:30;30.15;;;12.02;;
27863;SDS011;15980;51.092;13.916;2022-12-22T00:32:50;28.08;;;11.65;;
27863;SDS011;15980;51.092;13.916;2022-12-22T00:38:11;28.63;;;10.90;;
27863;SDS011;15980;51.092;13.916;2022-12-22T00:43:29;26.67;;;11.25;;
27863;SDS011;15980;51.092;13.916;2022-12-22T00:48:49;23.33;;;9.88;;
27863;SDS011;15980;51.092;13.916;2022-12-22T00:54:07;27.48;;;12.25;;
27863;SDS011;15980;51.092;13.916;2022-12-22T00:59:25;22.20;;;10.80;;
27863;SDS011;15980;51.092;13.916;2022-12-22T01:04:46;29.65;;;11.48;;
27863;SDS011;15980;51.092;13.916;2022-12-22T01:10:03;27.25;;;11.02;;
27863;SDS011;15980;51.092;13.916;2022-12-22T01:15:22;27.38;;;11.18;;
27863;SDS011;15980;51.092;13.916;2022-12-22T01:20:42;29.17;;;11.00;;
27863;SDS011;15980;51.092;13.916;2022-12-22T01:26:00;24.83;;;10.23;;
27863;SDS011;15980;51.092;13.916;2022-12-22T01:31:18;27.33;;;12.07;;
27863;SDS011;15980;51.092;13.916;2022-12-22T01:36:44;25.52;;;11.60;;
27863;SDS011;15980;51.092;13.916;2022-12-22T01:42:01;29.48;;;11.25;;
27863;SDS011;15980;51.092;13.916;2022-12-22T01:47:29;24.73;;;10.85;;
27863;SDS011;15980;51.092;13.916;2022-12-22T01:52:51;26.40;;;11.43;;
27863;SDS011;15980;51.092;13.916;2022-12-22T01:58:11;26.83;;;11.80;;
27863;SDS011;15980;51.092;13.916;2022-12-22T02:03:38;27.77;;;11.48;;
27863;SDS011;15980;51.092;13.916;2022-12-22T02:09:00;26.73;;;12.07;;
27863;SDS011;15980;51.092;13.916;2022-12-22T02:14:30;25.83;;;12.15;;
27863;SDS011;15980;51.092;13.916;2022-12-22T02:20:07;29.65;;;12.20;;
27863;SDS011;15980;51.092;13.916;2022-12-22T02:25:40;27.00;;;11.85;;
27863;SDS011;15980;51.092;13.916;2022-12-22T02:31:07;26.30;;;11.25;;
27863;SDS011;15980;51.092;13.916;2022-12-22T02:36:25;31.08;;;12.98;;
27863;SDS011;15980;51.092;13.916;2022-12-22T02:41:49;32.75;;;12.93;;
27863;SDS011;15980;51.092;13.916;2022-12-22T02:47:18;27.13;;;12.75;;
27863;SDS011;15980;51.092;13.916;2022-12-22T02:52:39;29.20;;;13.30;;
27863;SDS011;15980;51.092;13.916;2022-12-22T02:57:59;31.00;;;13.07;;
27863;SDS011;15980;51.092;13.916;2022-12-22T03:03:19;29.48;;;12.10;;
27863;SDS011;15980;51.092;13.916;2022-12-22T03:08:36;29.02;;;12.27;;
27863;SDS011;15980;51.092;13.916;2022-12-22T03:13:54;27.95;;;11.85;;
27863;SDS011;15980;51.092;13.916;2022-12-22T03:19:14;31.58;;;13.32;;
27863;SDS011;15980;51.092;13.916;2022-12-22T03:24:31;31.75;;;12.90;;
27863;SDS011;15980;51.092;13.916;2022-12-22T03:29:48;28.98;;;12.35;;
27863;SDS011;15980;51.092;13.916;2022-12-22T03:34:55;29.55;;;12.57;;
27863;SDS011;15980;51.092;13.916;2022-12-22T03:40:00;32.15;;;14.10;;
27863;SDS011;15980;51.092;13.916;2022-12-22T03:45:07;39.72;;;14.63;;
27863;SDS011;15980;51.092;13.916;2022-12-22T03:50:27;35.88;;;14.75;;
27863;SDS011;15980;51.092;13.916;2022-12-22T03:55:32;36.65;;;14.73;;
27863;SDS011;15980;51.092;13.916;2022-12-22T04:00:37;32.33;;;13.57;;
27863;SDS011;15980;51.092;13.916;2022-12-22T04:05:45;34.33;;;13.95;;
27863;SDS011;15980;51.092;13.916;2022-12-22T04:10:49;33.25;;;13.40;;
27863;SDS011;15980;51.092;13.916;2022-12-22T04:16:07;31.17;;;13.48;;
27863;SDS011;15980;51.092;13.916;2022-12-22T04:21:14;28.33;;;13.10;;
27863;SDS011;15980;51.092;13.916;2022-12-22T04:26:21;33.55;;;13.82;;
27863;SDS011;15980;51.092;13.916;2022-12-22T04:31:27;35.72;;;14.40;;
27863;SDS011;15980;51.092;13.916;2022-12-22T04:36:35;30.75;;;12.68;;
27863;SDS011;15980;51.092;13.916;2022-12-22T04:41:40;34.97;;;14.55;;
27863;SDS011;15980;51.092;13.916;2022-12-22T04:46:45;30.38;;;13.18;;
27863;SDS011;15980;51.092;13.916;2022-12-22T04:51:53;30.25;;;13.52;;
27863;SDS011;15980;51.092;13.916;2022-12-22T04:56:57;30.02;;;12.70;;
27863;SDS011;15980;51.092;13.916;2022-12-22T05:02:02;32.10;;;13.60;;
27863;SDS011;15980;51.092;13.916;2022-12-22T05:07:10;35.35;;;14.00;;
27863;SDS011;15980;51.092;13.916;2022-12-22T05:12:15;32.30;;;12.57;;
27863;SDS011;15980;51.092;13.916;2022-12-22T05:17:32;32.95;;;14.07;;
27863;SDS011;15980;51.092;13.916;2022-12-22T05:22:40;40.30;;;12.50;;
27863;SDS011;15980;51.092;13.916;2022-12-22T05:27:45;29.60;;;13.10;;
27863;SDS011;15980;51.092;13.916;2022-12-22T05:38:47;30.27;;;12.43;;
27863;SDS011;15980;51.092;13.916;2022-12-22T05:43:52;28.45;;;12.20;;
27863;SDS011;15980;51.092;13.916;2022-12-22T05:48:57;29.88;;;12.27;;
27863;SDS011;15980;51.092;13.916;2022-12-22T05:54:04;27.02;;;11.70;;
27863;SDS011;15980;51.092;13.916;2022-12-22T05:59:09;30.90;;;12.25;;
27863;SDS011;15980;51.092;13.916;2022-12-22T06:04:14;31.60;;;12.55;;
27863;SDS011;15980;51.092;13.916;2022-12-22T06:09:22;28.40;;;12.77;;
27863;SDS011;15980;51.092;13.916;2022-12-22T06:14:27;28.27;;;12.70;;
27863;SDS011;15980;51.092;13.916;2022-12-22T06:19:32;30.88;;;12.10;;
27863;SDS011;15980;51.092;13.916;2022-12-22T06:24:39;29.33;;;11.93;;
27863;SDS011;15980;51.092;13.916;2022-12-22T06:29:44;29.35;;;12.30;;
27863;SDS011;15980;51.092;13.916;2022-12-22T06:34:49;28.92;;;11.55;;
27863;SDS011;15980;51.092;13.916;2022-12-22T06:39:56;29.35;;;13.20;;
27863;SDS011;15980;51.092;13.916;2022-12-22T06:45:01;28.85;;;12.02;;
27863;SDS011;15980;51.092;13.916;2022-12-22T06:50:06;32.70;;;12.70;;
27863;SDS011;15980;51.092;13.916;2022-12-22T06:55:15;31.95;;;12.85;;
27863;SDS011;15980;51.092;13.916;2022-12-22T07:00:20;34.03;;;13.13;;
27863;SDS011;15980;51.092;13.916;2022-12-22T07:05:25;29.70;;;13.25;;
27863;SDS011;15980;51.092;13.916;2022-12-22T07:10:33;29.10;;;12.73;;
27863;SDS011;15980;51.092;13.916;2022-12-22T07:15:50;27.00;;;12.20;;
27863;SDS011;15980;51.092;13.916;2022-12-22T07:21:00;24.50;;;11.68;;
27863;SDS011;15980;51.092;13.916;2022-12-22T07:26:09;25.60;;;11.95;;
27863;SDS011;15980;51.092;13.916;2022-12-22T07:31:16;24.52;;;11.55;;
27863;SDS011;15980;51.092;13.916;2022-12-22T07:36:21;26.13;;;11.75;;
27863;SDS011;15980;51.092;13.916;2022-12-22T07:41:29;23.95;;;10.55;;
27863;SDS011;15980;51.092;13.916;2022-12-22T07:46:46;27.85;;;11.82;;
27863;SDS011;15980;51.092;13.916;2022-12-22T07:51:51;23.67;;;10.38;;
27863;SDS011;15980;51.092;13.916;2022-12-22T07:57:01;24.00;;;10.90;;
27863;SDS011;15980;51.092;13.916;2022-12-22T08:02:08;22.63;;;10.73;;
27863;SDS011;15980;51.092;13.916;2022-12-22T08:07:14;23.30;;;11.20;;
27863;SDS011;15980;51.092;13.916;2022-12-22T08:12:21;25.33;;;11.55;;
27863;SDS011;15980;51.092;13.916;2022-12-22T08:17:26;29.00;;;11.68;;
27863;SDS011;15980;51.092;13.916;2022-12-22T08:22:31;23.08;;;10.68;;
27863;SDS011;15980;51.092;13.916;2022-12-22T08:27:41;22.50;;;10.38;;
27863;SDS011;15980;51.092;13.916;2022-12-22T08:32:48;23.80;;;10.07;;
27863;SDS011;15980;51.092;13.916;2022-12-22T08:37:55;19.40;;;10.20;;
27863;SDS011;15980;51.092;13.916;2022-12-22T08:43:03;19.90;;;9.52;;
27863;SDS011;15980;51.092;13.916;2022-12-22T08:53:16;19.05;;;8.95;;
27863;SDS011;15980;51.092;13.916;2022-12-22T09:03:47;18.40;;;8.73;;
27863;SDS011;15980;51.092;13.916;2022-12-22T09:08:53;19.70;;;9.68;;
27863;SDS011;15980;51.092;13.916;2022-12-22T09:14:02;17.73;;;9.00;;
27863;SDS011;15980;51.092;13.916;2022-12-22T09:19:07;18.38;;;9.27;;
27863;SDS011;15980;51.092;13.916;2022-12-22T09:24:12;19.40;;;9.32;;
27863;SDS011;15980;51.092;13.916;2022-12-22T09:29:21;20.63;;;9.10;;
27863;SDS011;15980;51.092;13.916;2022-12-22T09:34:28;18.85;;;9.32;;
27863;SDS011;15980;51.092;13.916;2022-12-22T09:39:34;16.65;;;9.27;;
27863;SDS011;15980;51.092;13.916;2022-12-22T09:44:44;20.02;;;9.30;;
27863;SDS011;15980;51.092;13.916;2022-12-22T09:49:52;16.33;;;8.70;;
27863;SDS011;15980;51.092;13.916;2022-12-22T09:55:00;17.48;;;9.48;;
27863;SDS011;15980;51.092;13.916;2022-12-22T10:00:09;18.95;;;8.45;;
27863;SDS011;15980;51.092;13.916;2022-12-22T10:05:19;19.23;;;8.85;;
27863;SDS011;15980;51.092;13.916;2022-12-22T10:10:30;17.27;;;9.13;;
27863;SDS011;15980;51.092;13.916;2022-12-22T10:21:30;13.88;;;7.78;;
27863;SDS011;15980;51.092;13.916;2022-12-22T10:26:35;13.88;;;8.30;;
27863;SDS011;15980;51.092;13.916;2022-12-22T10:42:10;15.27;;;8.40;;
27863;SDS011;15980;51.092;13.916;2022-12-22T10:47:18;15.38;;;7.57;;
27863;SDS011;15980;51.092;13.916;2022-12-22T10:52:29;16.08;;;8.20;;
27863;SDS011;15980;51.092;13.916;2022-12-22T10:57:35;12.93;;;7.57;;
27863;SDS011;15980;51.092;13.916;2022-12-22T11:02:39;13.40;;;7.82;;
27863;SDS011;15980;51.092;13.916;2022-12-22T11:07:56;15.35;;;7.50;;
27863;SDS011;15980;51.092;13.916;2022-12-22T11:13:16;14.15;;;7.40;;
27863;SDS011;15980;51.092;13.916;2022-12-22T11:18:35;18.92;;;8.35;;
27863;SDS011;15980;51.092;13.916;2022-12-22T11:23:57;14.60;;;7.88;;
27863;SDS011;15980;51.092;13.916;2022-12-22T11:29:22;14.45;;;7.32;;
27863;SDS011;15980;51.092;13.916;2022-12-22T11:34:47;13.02;;;7.00;;
27863;SDS011;15980;51.092;13.916;2022-12-22T11:40:07;13.65;;;6.85;;
27863;SDS011;15980;51.092;13.916;2022-12-22T11:45:27;11.27;;;5.97;;
27863;SDS011;15980;51.092;13.916;2022-12-22T11:55:57;12.82;;;5.97;;
27863;SDS011;15980;51.092;13.916;2022-12-22T12:01:17;9.50;;;5.32;;
27863;SDS011;15980;51.092;13.916;2022-12-22T12:06:41;10.07;;;5.40;;
27863;SDS011;15980;51.092;13.916;2022-12-22T12:12:02;10.40;;;5.60;;
27863;SDS011;15980;51.092;13.916;2022-12-22T12:17:17;11.27;;;6.30;;
27863;SDS011;15980;51.092;13.916;2022-12-22T12:22:32;10.50;;;5.97;;
27863;SDS011;15980;51.092;13.916;2022-12-22T12:27:52;13.73;;;6.15;;
27863;SDS011;15980;51.092;13.916;2022-12-22T12:33:11;10.07;;;5.55;;
27863;SDS011;15980;51.092;13.916;2022-12-22T12:38:22;12.15;;;5.85;;
27863;SDS011;15980;51.092;13.916;2022-12-22T12:43:57;9.52;;;5.15;;
27863;SDS011;15980;51.092;13.916;2022-12-22T12:49:04;10.63;;;4.97;;
27863;SDS011;15980;51.092;13.916;2022-12-22T12:54:22;9.85;;;5.20;;
27863;SDS011;15980;51.092;13.916;2022-12-22T12:59:48;9.68;;;5.40;;
27863;SDS011;15980;51.092;13.916;2022-12-22T13:05:09;11.00;;;5.63;;
27863;SDS011;15980;51.092;13.916;2022-12-22T13:10:17;7.72;;;4.70;;
27863;SDS011;15980;51.092;13.916;2022-12-22T13:15:29;10.90;;;6.40;;
27863;SDS011;15980;51.092;13.916;2022-12-22T13:20:36;10.35;;;5.82;;
27863;SDS011;15980;51.092;13.916;2022-12-22T13:25:44;7.38;;;4.70;;
27863;SDS011;15980;51.092;13.916;2022-12-22T13:30:58;6.28;;;3.78;;
27863;SDS011;15980;51.092;13.916;2022-12-22T13:36:07;7.68;;;3.58;;
27863;SDS011;15980;51.092;13.916;2022-12-22T13:41:21;6.97;;;3.60;;
27863;SDS011;15980;51.092;13.916;2022-12-22T13:46:30;6.03;;;2.95;;
27863;SDS011;15980;51.092;13.916;2022-12-22T13:51:37;4.78;;;2.75;;
27863;SDS011;15980;51.092;13.916;2022-12-22T13:56:43;5.03;;;2.80;;
27863;SDS011;15980;51.092;13.916;2022-12-22T14:01:58;3.90;;;2.22;;
27863;SDS011;15980;51.092;13.916;2022-12-22T14:07:08;5.07;;;2.38;;
27863;SDS011;15980;51.092;13.916;2022-12-22T14:12:14;4.32;;;2.13;;
27863;SDS011;15980;51.092;13.916;2022-12-22T14:17:24;4.25;;;1.73;;
27863;SDS011;15980;51.092;13.916;2022-12-22T14:22:32;1.70;;;1.30;;
27863;SDS011;15980;51.092;13.916;2022-12-22T14:27:40;4.43;;;2.97;;
27863;SDS011;15980;51.092;13.916;2022-12-22T14:32:50;3.67;;;2.53;;
27863;SDS011;15980;51.092;13.916;2022-12-22T14:38:11;1.67;;;1.27;;
27863;SDS011;15980;51.092;13.916;2022-12-22T14:43:27;2.05;;;1.33;;
27863;SDS011;15980;51.092;13.916;2022-12-22T14:48:37;4.22;;;1.88;;
27863;SDS011;15980;51.092;13.916;2022-12-22T14:53:49;1.52;;;0.90;;
27863;SDS011;15980;51.092;13.916;2022-12-22T14:59:09;4.75;;;1.00;;
27863;SDS011;15980;51.092;13.916;2022-12-22T15:04:18;2.85;;;0.80;;
27863;SDS011;15980;51.092;13.916;2022-12-22T15:09:24;0.70;;;0.60;;
27863;SDS011;15980;51.092;13.916;2022-12-22T15:14:51;3.10;;;0.70;;
27863;SDS011;15980;51.092;13.916;2022-12-22T15:19:59;1.48;;;0.70;;
27863;SDS011;15980;51.092;13.916;2022-12-22T15:25:10;1.55;;;0.70;;
27863;SDS011;15980;51.092;13.916;2022-12-22T15:30:16;4.25;;;1.10;;
27863;SDS011;15980;51.092;13.916;2022-12-22T15:35:31;1.67;;;0.70;;
27863;SDS011;15980;51.092;13.916;2022-12-22T15:40:37;3.03;;;0.70;;
27863;SDS011;15980;51.092;13.916;2022-12-22T15:45:42;77.95;;;35.78;;
27863;SDS011;15980;51.092;13.916;2022-12-22T15:50:51;9.75;;;6.90;;
27863;SDS011;15980;51.092;13.916;2022-12-22T15:55:58;9.10;;;8.20;;
27863;SDS011;15980;51.092;13.916;2022-12-22T16:01:03;4.85;;;4.07;;
27863;SDS011;15980;51.092;13.916;2022-12-22T16:06:11;2.70;;;1.98;;
27863;SDS011;15980;51.092;13.916;2022-12-22T16:11:17;3.45;;;1.60;;
27863;SDS011;15980;51.092;13.916;2022-12-22T16:16:23;3.55;;;2.70;;
27863;SDS011;15980;51.092;13.916;2022-12-22T16:21:30;4.30;;;3.63;;
27863;SDS011;15980;51.092;13.916;2022-12-22T16:26:36;3.97;;;2.55;;
27863;SDS011;15980;51.092;13.916;2022-12-22T16:31:41;4.28;;;2.90;;
27863;SDS011;15980;51.092;13.916;2022-12-22T16:36:48;4.20;;;3.58;;
27863;SDS011;15980;51.092;13.916;2022-12-22T16:41:53;4.90;;;2.10;;
27863;SDS011;15980;51.092;13.916;2022-12-22T16:46:58;3.80;;;2.78;;
27863;SDS011;15980;51.092;13.916;2022-12-22T16:52:11;6.78;;;3.33;;
27863;SDS011;15980;51.092;13.916;2022-12-22T16:57:21;8.88;;;5.03;;
27863;SDS011;15980;51.092;13.916;2022-12-22T17:02:27;13.43;;;6.13;;
27863;SDS011;15980;51.092;13.916;2022-12-22T17:07:36;14.55;;;6.82;;
27863;SDS011;15980;51.092;13.916;2022-12-22T17:12:41;15.70;;;7.72;;
27863;SDS011;15980;51.092;13.916;2022-12-22T17:17:46;19.63;;;8.63;;
27863;SDS011;15980;51.092;13.916;2022-12-22T17:22:55;14.32;;;7.80;;
27863;SDS011;15980;51.092;13.916;2022-12-22T17:28:02;14.98;;;8.38;;
27863;SDS011;15980;51.092;13.916;2022-12-22T17:33:08;19.20;;;9.32;;
27863;SDS011;15980;51.092;13.916;2022-12-22T17:38:20;12.52;;;6.28;;
27863;SDS011;15980;51.092;13.916;2022-12-22T17:43:27;16.00;;;8.80;;
27863;SDS011;15980;51.092;13.916;2022-12-22T17:48:32;18.50;;;9.35;;
27863;SDS011;15980;51.092;13.916;2022-12-22T17:53:39;18.10;;;8.93;;
27863;SDS011;15980;51.092;13.916;2022-12-22T17:58:44;19.58;;;9.27;;
27863;SDS011;15980;51.092;13.916;2022-12-22T18:03:50;19.23;;;8.45;;
27863;SDS011;15980;51.092;13.916;2022-12-22T18:08:57;22.20;;;10.32;;
27863;SDS011;15980;51.092;13.916;2022-12-22T18:14:03;22.65;;;10.65;;
27863;SDS011;15980;51.092;13.916;2022-12-22T18:19:08;23.33;;;10.57;;
27863;SDS011;15980;51.092;13.916;2022-12-22T18:24:16;24.90;;;10.20;;
27863;SDS011;15980;51.092;13.916;2022-12-22T18:29:22;22.70;;;10.32;;
27863;SDS011;15980;51.092;13.916;2022-12-22T18:34:28;25.25;;;10.70;;
27863;SDS011;15980;51.092;13.916;2022-12-22T18:39:36;22.70;;;10.20;;
27863;SDS011;15980;51.092;13.916;2022-12-22T18:44:41;25.67;;;10.38;;
27863;SDS011;15980;51.092;13.916;2022-12-22T18:49:45;29.48;;;11.63;;
27863;SDS011;15980;51.092;13.916;2022-12-22T18:54:53;27.67;;;11.10;;
27863;SDS011;15980;51.092;13.916;2022-12-22T18:59:58;25.65;;;11.20;;
27863;SDS011;15980;51.092;13.916;2022-12-22T19:05:08;29.38;;;12.52;;
27863;SDS011;15980;51.092;13.916;2022-12-22T19:10:21;28.05;;;11.73;;
27863;SDS011;15980;51.092;13.916;2022-12-22T19:15:30;23.35;;;11.25;;
27863;SDS011;15980;51.092;13.916;2022-12-22T19:20:36;24.48;;;10.60;;
27863;SDS011;15980;51.092;13.916;2022-12-22T19:25:44;24.63;;;10.70;;
27863;SDS011;15980;51.092;13.916;2022-12-22T19:30:50;26.38;;;10.48;;
27863;SDS011;15980;51.092;13.916;2022-12-22T19:35:56;22.63;;;9.73;;
27863;SDS011;15980;51.092;13.916;2022-12-22T19:41:04;18.80;;;8.35;;
27863;SDS011;15980;51.092;13.916;2022-12-22T19:46:10;17.67;;;7.78;;
27863;SDS011;15980;51.092;13.916;2022-12-22T19:51:15;20.90;;;8.30;;
27863;SDS011;15980;51.092;13.916;2022-12-22T19:56:23;16.25;;;7.28;;
27863;SDS011;15980;51.092;13.916;2022-12-22T20:01:30;14.95;;;6.97;;
27863;SDS011;15980;51.092;13.916;2022-12-22T20:06:35;14.68;;;6.13;;
27863;SDS011;15980;51.092;13.916;2022-12-22T20:11:42;14.55;;;6.35;;
27863;SDS011;15980;51.092;13.916;2022-12-22T20:16:48;14.15;;;6.20;;
27863;SDS011;15980;51.092;13.916;2022-12-22T20:21:53;14.52;;;6.80;;
27863;SDS011;15980;51.092;13.916;2022-12-22T20:27:00;13.52;;;6.43;;
27863;SDS011;15980;51.092;13.916;2022-12-22T20:32:05;14.48;;;7.30;;
27863;SDS011;15980;51.092;13.916;2022-12-22T20:37:12;17.95;;;9.07;;
27863;SDS011;15980;51.092;13.916;2022-12-22T20:42:21;22.83;;;10.32;;
27863;SDS011;15980;51.092;13.916;2022-12-22T20:47:27;22.05;;;9.70;;
27863;SDS011;15980;51.092;13.916;2022-12-22T20:52:32;24.50;;;11.23;;
27863;SDS011;15980;51.092;13.916;2022-12-22T20:57:40;22.55;;;10.35;;
27863;SDS011;15980;51.092;13.916;2022-12-22T21:02:45;22.70;;;10.55;;
27863;SDS011;15980;51.092;13.916;2022-12-22T21:07:50;20.88;;;10.15;;
27863;SDS011;15980;51.092;13.916;2022-12-22T21:12:57;24.23;;;10.48;;
27863;SDS011;15980;51.092;13.916;2022-12-22T21:18:03;19.55;;;9.68;;
27863;SDS011;15980;51.092;13.916;2022-12-22T21:23:09;19.13;;;8.88;;
27863;SDS011;15980;51.092;13.916;2022-12-22T21:28:20;16.95;;;8.75;;
27863;SDS011;15980;51.092;13.916;2022-12-22T21:33:32;17.52;;;7.90;;
27863;SDS011;15980;51.092;13.916;2022-12-22T21:38:37;13.82;;;7.03;;
27863;SDS011;15980;51.092;13.916;2022-12-22T21:43:44;14.25;;;7.20;;
27863;SDS011;15980;51.092;13.916;2022-12-22T21:48:49;12.30;;;6.45;;
27863;SDS011;15980;51.092;13.916;2022-12-22T21:53:54;12.82;;;7.38;;
27863;SDS011;15980;51.092;13.916;2022-12-22T21:59:02;11.57;;;6.57;;
27863;SDS011;15980;51.092;13.916;2022-12-22T22:04:07;13.95;;;6.82;;
27863;SDS011;15980;51.092;13.916;2022-12-22T22:09:12;13.20;;;7.50;;
27863;SDS011;15980;51.092;13.916;2022-12-22T22:14:20;15.27;;;7.90;;
27863;SDS011;15980;51.092;13.916;2022-12-22T22:19:25;21.23;;;10.55;;
27863;SDS011;15980;51.092;13.916;2022-12-22T22:24:30;23.73;;;11.70;;
27863;SDS011;15980;51.092;13.916;2022-12-22T22:29:38;20.15;;;9.73;;
27863;SDS011;15980;51.092;13.916;2022-12-22T22:34:43;13.60;;;6.93;;
27863;SDS011;15980;51.092;13.916;2022-12-22T22:39:48;15.45;;;7.88;;
27863;SDS011;15980;51.092;13.916;2022-12-22T22:44:55;12.02;;;6.57;;
27863;SDS011;15980;51.092;13.916;2022-12-22T22:50:00;11.15;;;6.35;;
27863;SDS011;15980;51.092;13.916;2022-12-22T22:55:07;14.10;;;6.13;;
27863;SDS011;15980;51.092;13.916;2022-12-22T23:00:16;8.82;;;5.05;;
27863;SDS011;15980;51.092;13.916;2022-12-22T23:05:23;10.43;;;5.50;;
27863;SDS011;15980;51.092;13.916;2022-12-22T23:10:28;13.07;;;6.10;;
27863;SDS011;15980;51.092;13.916;2022-12-22T23:15:37;16.02;;;7.53;;
27863;SDS011;15980;51.092;13.916;2022-12-22T23:20:43;16.58;;;7.63;;
27863;SDS011;15980;51.092;13.916;2022-12-22T23:25:48;12.07;;;6.28;;
27863;SDS011;15980;51.092;13.916;2022-12-22T23:30:56;13.88;;;6.32;;
27863;SDS011;15980;51.092;13.916;2022-12-22T23:36:01;13.60;;;6.55;;
27863;SDS011;15980;51.092;13.916;2022-12-22T23:41:08;10.63;;;5.35;;
27863;SDS011;15980;51.092;13.916;2022-12-22T23:46:17;10.07;;;4.95;;
27863;SDS011;15980;51.092;13.916;2022-12-22T23:51:23;10.80;;;5.75;;
27863;SDS011;15980;51.092;13.916;2022-12-22T23:56:30;11.52;;;5.85;;
